Mary Ann Moran — WDF4572 — position and weather

sailwx.info

Track history (hours):
 
Tides and Currents Weather Stations Pressure Air Temp Water Temp Dewpoint Dewpoint Depression Visibility Wind Speed Wind Dir Waves Ship Positions

Mary Ann Moran

Owner: MORAN TOWING CORPORATION, NEW CANAAN, CT. More information available from US FCC via Universal Licensing System and Coast Guard Vessel Documentation Center.

Last reported at 2014-Oct-21 12:32 UTC. Time now 2014-Oct-21 13:31 UTC.
Position N 27°56' W 082°26'.

Length 170 m; draft 5 m.

Type: Tow > 200 m length. MMSI: 367453420.

Date/timePositionNaut miles runAvg speedWind from/ knotsBaromVisibWave heightAir tempDewpointWater temp
2014-Oct-21 12:32N 27°56' W 082°26'0 0.2
2014-Oct-21 11:31N 27°56' W 082°27'1 0.6
2014-Oct-21 10:32N 27°57' W 082°27'0 0.0
2014-Oct-21 09:32N 27°57' W 082°27'0 0.0
2014-Oct-21 08:32N 27°57' W 082°27'0 0.0
2014-Oct-21 07:32N 27°57' W 082°27'0 0.0
2014-Oct-21 06:32N 27°57' W 082°27'0 0.0
2014-Oct-21 05:32N 27°57' W 082°27'0 0.0
2014-Oct-21 04:32N 27°57' W 082°27'0 0.0
2014-Oct-21 03:32N 27°57' W 082°27'0 0.0
2014-Oct-21 02:32N 27°57' W 082°27'0 0.0
2014-Oct-21 01:32N 27°57' W 082°27'0 0.0
2014-Oct-21 00:32N 27°57' W 082°27'0 0.0
2014-Oct-20 23:32N 27°57' W 082°27'0 0.0
2014-Oct-20 22:32N 27°57' W 082°27'0 0.0
2014-Oct-20 21:32N 27°57' W 082°27'0 0.0
2014-Oct-20 20:32N 27°57' W 082°27'0 0.0
2014-Oct-20 19:32N 27°57' W 082°27'0 0.0
2014-Oct-20 18:32N 27°57' W 082°27'0 0.0
2014-Oct-20 17:32N 27°57' W 082°27'0 0.0
2014-Oct-20 12:32N 27°57' W 082°27'0 0.0
2014-Oct-20 11:32N 27°57' W 082°27'0 0.0
2014-Oct-20 10:32N 27°57' W 082°27'0 0.0
2014-Oct-20 09:32N 27°57' W 082°27'0 0.0
2014-Oct-20 08:32N 27°57' W 082°27'0 0.0
2014-Oct-20 07:32N 27°57' W 082°27'0 0.0
2014-Oct-20 06:32N 27°57' W 082°27'0 0.0
2014-Oct-20 05:32N 27°57' W 082°27'0 0.0
2014-Oct-20 04:32N 27°57' W 082°27'0 0.0
2014-Oct-20 03:32N 27°57' W 082°27'0 0.0
2014-Oct-20 02:32N 27°57' W 082°27'0 0.0
2014-Oct-20 01:32N 27°57' W 082°27'0 0.0
2014-Oct-20 00:32N 27°57' W 082°27'0 0.0
2014-Oct-19 23:32N 27°57' W 082°27'0 0.1
2014-Oct-19 22:33N 27°57' W 082°27'0 0.0
2014-Oct-19 21:33N 27°57' W 082°27'0 0.0
2014-Oct-19 20:33N 27°57' W 082°27'0 0.0
2014-Oct-19 19:33N 27°57' W 082°27'0 0.0
2014-Oct-19 18:33N 27°57' W 082°27'0 0.0
2014-Oct-19 17:33N 27°57' W 082°27'0 0.1
2014-Oct-19 16:29N 27°57' W 082°27'0 0.0
2014-Oct-19 15:32N 27°57' W 082°27'0 0.0
2014-Oct-19 14:26N 27°57' W 082°27'0 0.0
2014-Oct-19 13:32N 27°57' W 082°27'0 0.0
2014-Oct-19 12:32N 27°57' W 082°27'0 0.0
2014-Oct-19 11:32N 27°57' W 082°27'0 0.0
2014-Oct-19 10:29N 27°57' W 082°27'0 0.0
2014-Oct-19 09:32N 27°57' W 082°27'0 0.0
2014-Oct-19 08:32N 27°57' W 082°27'0 0.0
2014-Oct-19 07:32N 27°57' W 082°27'0 0.4
2014-Oct-19 06:33N 27°57' W 082°27'5 5.0
2014-Oct-19 05:33N 27°52' W 082°27'7 6.8
2014-Oct-19 04:33N 27°46' W 082°31'10 9.5
2014-Oct-19 03:33N 27°38' W 082°37'10 9.7
2014-Oct-19 02:33N 27°37' W 082°48'10 9.7
2014-Oct-19 01:33N 27°35' W 082°59'384 9.1
2014-Oct-17 07:31N 29°37' W 089°53'12 0.2
2014-Oct-15 06:05N 29°47' W 090°01'  
Track history (hours):
 
Tides and Currents Weather Stations Pressure Air Temp Water Temp Dewpoint Dewpoint Depression Visibility Wind Speed Wind Dir Waves Ship Positions

Mary Ann Moran

Owner: MORAN TOWING CORPORATION, NEW CANAAN, CT. More information available from US FCC via Universal Licensing System and Coast Guard Vessel Documentation Center.

Last reported at 2014-Oct-21 12:32 UTC. Time now 2014-Oct-21 13:31 UTC.
Position N 27°56' W 082°26'.

Length 170 m; draft 5 m.

Type: Tow > 200 m length. MMSI: 367453420.

Date/timePositionNaut miles runAvg speedWind from/ knotsBaromVisibWave heightAir tempDewpointWater temp
2014-Oct-21 12:32N 27°56' W 082°26'0 0.2
2014-Oct-21 11:31N 27°56' W 082°27'1 0.6
2014-Oct-21 10:32N 27°57' W 082°27'0 0.0
2014-Oct-21 09:32N 27°57' W 082°27'0 0.0
2014-Oct-21 08:32N 27°57' W 082°27'0 0.0
2014-Oct-21 07:32N 27°57' W 082°27'0 0.0
2014-Oct-21 06:32N 27°57' W 082°27'0 0.0
2014-Oct-21 05:32N 27°57' W 082°27'0 0.0
2014-Oct-21 04:32N 27°57' W 082°27'0 0.0
2014-Oct-21 03:32N 27°57' W 082°27'0 0.0
2014-Oct-21 02:32N 27°57' W 082°27'0 0.0
2014-Oct-21 01:32N 27°57' W 082°27'0 0.0
2014-Oct-21 00:32N 27°57' W 082°27'0 0.0
2014-Oct-20 23:32N 27°57' W 082°27'0 0.0
2014-Oct-20 22:32N 27°57' W 082°27'0 0.0
2014-Oct-20 21:32N 27°57' W 082°27'0 0.0
2014-Oct-20 20:32N 27°57' W 082°27'0 0.0
2014-Oct-20 19:32N 27°57' W 082°27'0 0.0
2014-Oct-20 18:32N 27°57' W 082°27'0 0.0
2014-Oct-20 17:32N 27°57' W 082°27'0 0.0
2014-Oct-20 12:32N 27°57' W 082°27'0 0.0
2014-Oct-20 11:32N 27°57' W 082°27'0 0.0
2014-Oct-20 10:32N 27°57' W 082°27'0 0.0
2014-Oct-20 09:32N 27°57' W 082°27'0 0.0
2014-Oct-20 08:32N 27°57' W 082°27'0 0.0
2014-Oct-20 07:32N 27°57' W 082°27'0 0.0
2014-Oct-20 06:32N 27°57' W 082°27'0 0.0
2014-Oct-20 05:32N 27°57' W 082°27'0 0.0
2014-Oct-20 04:32N 27°57' W 082°27'0 0.0
2014-Oct-20 03:32N 27°57' W 082°27'0 0.0
2014-Oct-20 02:32N 27°57' W 082°27'0 0.0
2014-Oct-20 01:32N 27°57' W 082°27'0 0.0
2014-Oct-20 00:32N 27°57' W 082°27'0 0.0
2014-Oct-19 23:32N 27°57' W 082°27'0 0.1
2014-Oct-19 22:33N 27°57' W 082°27'0 0.0
2014-Oct-19 21:33N 27°57' W 082°27'0 0.0
2014-Oct-19 20:33N 27°57' W 082°27'0 0.0
2014-Oct-19 19:33N 27°57' W 082°27'0 0.0
2014-Oct-19 18:33N 27°57' W 082°27'0 0.0
2014-Oct-19 17:33N 27°57' W 082°27'0 0.1
2014-Oct-19 16:29N 27°57' W 082°27'0 0.0
2014-Oct-19 15:32N 27°57' W 082°27'0 0.0
2014-Oct-19 14:26N 27°57' W 082°27'0 0.0
2014-Oct-19 13:32N 27°57' W 082°27'0 0.0
2014-Oct-19 12:32N 27°57' W 082°27'0 0.0
2014-Oct-19 11:32N 27°57' W 082°27'0 0.0
2014-Oct-19 10:29N 27°57' W 082°27'0 0.0
2014-Oct-19 09:32N 27°57' W 082°27'0 0.0
2014-Oct-19 08:32N 27°57' W 082°27'0 0.0
2014-Oct-19 07:32N 27°57' W 082°27'0 0.4
2014-Oct-19 06:33N 27°57' W 082°27'5 5.0
2014-Oct-19 05:33N 27°52' W 082°27'7 6.8
2014-Oct-19 04:33N 27°46' W 082°31'10 9.5
2014-Oct-19 03:33N 27°38' W 082°37'10 9.7
2014-Oct-19 02:33N 27°37' W 082°48'10 9.7
2014-Oct-19 01:33N 27°35' W 082°59'384 9.1
2014-Oct-17 07:31N 29°37' W 089°53'12 0.2
2014-Oct-15 06:05N 29°47' W 090°01'  

Dump ship's entire track history